createdAt,value
2019-04-26T00:02:46.680Z,16.00
2019-04-26T00:05:18.464Z,16.00
2019-04-26T00:07:49.580Z,16.00
2019-04-26T00:10:34.192Z,16.00
2019-04-26T00:13:25.859Z,16.00
2019-04-26T00:15:58.395Z,16.00
2019-04-26T00:18:28.753Z,16.00
2019-04-26T00:20:59.092Z,16.00
2019-04-26T00:23:29.828Z,15.90
2019-04-26T00:26:00.741Z,15.90
2019-04-26T00:28:31.722Z,15.90
2019-04-26T00:31:02.402Z,15.80
2019-04-26T00:33:32.737Z,15.90
2019-04-26T00:36:03.447Z,15.90
2019-04-26T00:38:33.811Z,15.90
2019-04-26T00:41:05.039Z,15.90
2019-04-26T00:43:35.778Z,15.90
2019-04-26T00:46:06.888Z,15.90
2019-04-26T00:48:37.845Z,15.90
2019-04-26T00:51:08.516Z,15.90
2019-04-26T00:53:38.883Z,15.90
2019-04-26T00:56:09.565Z,15.90
2019-04-26T00:58:40.536Z,15.90
2019-04-26T01:01:11.768Z,15.90
2019-04-26T01:03:42.528Z,15.90
2019-04-26T01:06:16.982Z,15.90
2019-04-26T01:08:47.730Z,15.80
2019-04-26T01:11:19.635Z,15.80
2019-04-26T01:13:50.428Z,15.80
2019-04-26T01:16:22.153Z,15.80
2019-04-26T01:18:53.773Z,15.70
2019-04-26T01:21:24.736Z,15.70
2019-04-26T01:23:55.551Z,15.70
2019-04-26T01:26:50.020Z,15.60
2019-04-26T01:29:20.381Z,15.60
2019-04-26T01:31:59.091Z,15.60
2019-04-26T01:34:30.033Z,15.60
2019-04-26T01:37:00.975Z,15.60
2019-04-26T01:39:33.649Z,15.60
2019-04-26T01:42:08.945Z,15.60
2019-04-26T01:44:44.633Z,15.50
2019-04-26T01:47:16.205Z,15.50
2019-04-26T01:49:46.917Z,15.50
2019-04-26T01:52:17.294Z,15.50
2019-04-26T01:54:47.628Z,15.20
2019-04-26T01:57:18.677Z,15.40
2019-04-26T01:59:53.691Z,15.40
2019-04-26T02:02:38.372Z,15.30
2019-04-26T02:05:13.589Z,15.30
2019-04-26T02:07:44.637Z,15.20
2019-04-26T02:10:19.171Z,15.20
2019-04-26T02:12:50.544Z,15.20
2019-04-26T02:15:24.440Z,15.10
2019-04-26T02:17:56.588Z,15.10
2019-04-26T02:20:52.645Z,15.10
2019-04-26T02:23:27.938Z,15.00
2019-04-26T02:26:00.067Z,15.00
2019-04-26T02:28:30.396Z,15.00
2019-04-26T02:31:00.842Z,15.00
2019-04-26T02:33:33.295Z,15.00
2019-04-26T02:36:03.742Z,14.90
2019-04-26T02:38:35.087Z,14.90
2019-04-26T02:41:06.668Z,14.90
2019-04-26T02:43:37.309Z,14.90
2019-04-26T02:46:09.415Z,14.90
2019-04-26T02:48:49.861Z,14.90
2019-04-26T02:51:30.442Z,14.90
2019-04-26T02:54:21.042Z,14.90
2019-04-26T02:56:51.385Z,14.80
2019-04-26T03:00:00.236Z,14.80
2019-04-26T03:02:33.243Z,14.80
2019-04-26T03:05:05.548Z,14.80
2019-04-26T03:07:56.170Z,14.80
2019-04-26T03:10:51.049Z,14.70
2019-04-26T03:13:25.525Z,14.70
2019-04-26T03:16:13.673Z,14.70
2019-04-26T03:18:53.774Z,14.70
2019-04-26T03:21:47.279Z,14.60
2019-04-26T03:24:39.216Z,14.60
2019-04-26T03:27:33.375Z,14.60
2019-04-26T03:30:19.322Z,14.60
2019-04-26T03:33:11.683Z,14.60
2019-04-26T03:36:00.541Z,14.60
2019-04-26T03:38:41.910Z,14.50
2019-04-26T03:41:36.682Z,14.50
2019-04-26T03:44:26.956Z,14.50
2019-04-26T03:47:00.378Z,14.50
2019-04-26T03:49:54.599Z,14.40
2019-04-26T03:52:35.308Z,14.40
2019-04-26T03:55:29.315Z,14.40
2019-04-26T03:58:08.094Z,14.40
2019-04-26T04:00:44.698Z,14.40
2019-04-26T04:03:37.769Z,14.40
2019-04-26T04:06:08.919Z,14.40
2019-04-26T04:08:45.977Z,14.40
2019-04-26T04:11:24.369Z,14.40
2019-04-26T04:14:08.239Z,14.40
2019-04-26T04:16:54.532Z,14.40
2019-04-26T04:19:57.738Z,14.40
2019-04-26T04:22:49.389Z,14.40
2019-04-26T04:25:43.677Z,14.50
2019-04-26T04:28:30.085Z,14.50
2019-04-26T04:31:05.102Z,14.60
2019-04-26T04:34:01.631Z,14.60
2019-04-26T04:36:37.256Z,14.70
2019-04-26T04:39:13.394Z,14.80
2019-04-26T04:42:18.691Z,14.80
2019-04-26T04:45:06.308Z,14.90
2019-04-26T04:48:20.859Z,15.00
2019-04-26T04:51:28.242Z,15.00
2019-04-26T04:54:08.843Z,15.00
2019-04-26T04:56:59.356Z,15.10
2019-04-26T04:59:41.757Z,15.10
2019-04-26T05:02:21.545Z,15.10
2019-04-26T05:05:06.664Z,15.20
2019-04-26T05:08:09.915Z,15.20
2019-04-26T05:11:04.178Z,15.30
2019-04-26T05:13:45.227Z,15.30
2019-04-26T05:17:02.000Z,15.40
2019-04-26T05:20:04.456Z,15.50
2019-04-26T05:22:58.158Z,15.60
2019-04-26T05:26:11.271Z,15.70
2019-04-26T05:29:03.259Z,15.80
2019-04-26T05:32:15.916Z,15.90
2019-04-26T05:34:58.005Z,16.00
2019-04-26T05:38:03.100Z,16.00
2019-04-26T05:41:00.130Z,16.10
2019-04-26T05:43:38.115Z,16.20
2019-04-26T05:46:32.736Z,16.30
2019-04-26T05:49:44.310Z,16.30
2019-04-26T05:52:52.046Z,16.40
2019-04-26T05:55:36.226Z,16.50
2019-04-26T05:58:31.752Z,16.60
2019-04-26T06:01:42.969Z,16.70
2019-04-26T06:04:34.752Z,16.80
2019-04-26T06:07:52.239Z,16.90
2019-04-26T06:10:33.548Z,17.00
2019-04-26T06:13:22.422Z,17.10
2019-04-26T06:16:18.602Z,17.20
2019-04-26T06:19:22.031Z,17.20
2019-04-26T06:22:00.577Z,17.30
2019-04-26T06:24:42.369Z,17.40
2019-04-26T06:27:48.857Z,17.40
2019-04-26T06:30:24.029Z,17.50
2019-04-26T06:33:05.616Z,17.60
2019-04-26T06:35:36.616Z,17.70
2019-04-26T06:38:59.940Z,17.80
2019-04-26T06:42:08.639Z,17.90
2019-04-26T06:45:19.988Z,18.10
2019-04-26T06:48:22.987Z,18.20
2019-04-26T06:51:44.288Z,18.30
2019-04-26T06:54:40.875Z,18.40
2019-04-26T06:58:02.898Z,18.60
2019-04-26T07:01:20.449Z,18.70
2019-04-26T07:04:24.436Z,18.80
2019-04-26T07:07:11.569Z,19.00
2019-04-26T07:10:02.669Z,19.10
2019-04-26T07:13:02.204Z,19.20
2019-04-26T07:15:46.577Z,19.30
2019-04-26T07:18:27.940Z,19.40
2019-04-26T07:21:12.910Z,19.60
2019-04-26T07:24:21.552Z,19.70
2019-04-26T07:27:15.005Z,19.90
2019-04-26T07:30:14.301Z,20.10
2019-04-26T07:33:10.725Z,20.30
2019-04-26T07:36:07.888Z,20.50
2019-04-26T07:39:19.921Z,20.70
2019-04-26T07:42:36.827Z,20.90
2019-04-26T07:45:51.527Z,21.10
2019-04-26T07:48:53.209Z,21.30
2019-04-26T07:51:50.974Z,21.60
2019-04-26T07:54:51.307Z,21.80
2019-04-26T07:57:50.337Z,21.80
2019-04-26T08:00:45.195Z,21.90
2019-04-26T08:03:31.512Z,22.00
2019-04-26T08:06:21.068Z,22.00
2019-04-26T08:09:24.233Z,22.10
2019-04-26T08:11:51.704Z,22.30
2019-04-26T08:14:46.833Z,22.40
2019-04-26T08:17:27.396Z,22.50
2019-04-26T08:20:08.105Z,22.70
2019-04-26T08:22:36.583Z,22.90
2019-04-26T08:25:08.250Z,23.20
2019-04-26T08:27:39.407Z,23.40
2019-04-26T08:30:17.452Z,23.50
2019-04-26T08:32:54.512Z,23.60
2019-04-26T08:35:27.701Z,23.60
2019-04-26T08:38:01.819Z,23.70
2019-04-26T08:40:33.394Z,23.70
2019-04-26T08:43:22.682Z,23.80
2019-04-26T08:46:13.224Z,23.90
2019-04-26T08:48:48.867Z,24.00
2019-04-26T08:51:22.052Z,24.10
2019-04-26T08:53:54.209Z,24.40
2019-04-26T08:56:38.598Z,24.60
2019-04-26T08:59:17.029Z,24.60
2019-04-26T09:01:58.332Z,24.70
2019-04-26T09:04:33.447Z,24.90
2019-04-26T09:07:09.411Z,25.10
2019-04-26T09:09:40.428Z,25.10
2019-04-26T09:12:22.882Z,25.10
2019-04-26T09:14:50.925Z,25.10
2019-04-26T09:17:21.390Z,25.10
2019-04-26T09:19:52.096Z,25.20
2019-04-26T09:22:33.343Z,25.30
2019-04-26T09:25:05.830Z,25.20
2019-04-26T09:27:38.198Z,25.00
2019-04-26T09:30:11.054Z,25.00
2019-04-26T09:32:52.145Z,25.00
2019-04-26T09:35:22.964Z,25.20
2019-04-26T09:37:53.785Z,25.20
2019-04-26T09:40:24.162Z,25.30
2019-04-26T09:42:56.884Z,25.30
2019-04-26T09:45:29.242Z,25.40
2019-04-26T09:48:17.977Z,25.30
2019-04-26T09:50:50.513Z,25.50
2019-04-26T09:53:21.797Z,25.60
2019-04-26T09:55:52.284Z,25.70
2019-04-26T09:58:22.922Z,25.60
2019-04-26T10:00:53.366Z,25.60
2019-04-26T10:03:24.666Z,25.60
2019-04-26T10:05:55.806Z,25.60
2019-04-26T10:08:27.602Z,25.40
2019-04-26T10:10:58.380Z,25.30
2019-04-26T10:13:30.448Z,25.30
2019-04-26T10:16:05.344Z,25.50
2019-04-26T10:18:36.184Z,25.80
2019-04-26T10:21:06.564Z,25.90
2019-04-26T10:23:37.317Z,26.10
2019-04-26T10:26:08.158Z,26.10
2019-04-26T10:28:38.889Z,26.20
2019-04-26T10:31:09.272Z,26.30
2019-04-26T10:33:39.985Z,26.30
2019-04-26T10:36:10.706Z,26.30
2019-04-26T10:38:41.111Z,26.50
2019-04-26T10:41:11.862Z,26.60
2019-04-26T10:44:09.892Z,26.70
2019-04-26T10:46:40.507Z,26.70
2019-04-26T10:49:41.043Z,26.60
2019-04-26T10:52:21.049Z,26.40
2019-04-26T10:54:56.446Z,26.30
2019-04-26T10:57:28.695Z,26.20
2019-04-26T11:00:01.410Z,26.10
2019-04-26T11:02:32.260Z,26.00
2019-04-26T11:05:02.945Z,26.00
2019-04-26T11:07:33.309Z,26.10
2019-04-26T11:10:05.904Z,26.00
2019-04-26T11:12:39.623Z,26.10
2019-04-26T11:15:08.486Z,26.10
2019-04-26T11:17:39.243Z,26.20
2019-04-26T11:20:11.912Z,26.30
2019-04-26T11:22:42.280Z,26.30
2019-04-26T11:25:13.191Z,26.30
2019-04-26T11:27:46.645Z,26.10
2019-04-26T11:30:20.777Z,26.20
2019-04-26T11:32:48.378Z,26.20
2019-04-26T11:35:38.158Z,26.10
2019-04-26T11:38:08.529Z,26.10
2019-04-26T11:40:38.883Z,26.30
2019-04-26T11:43:09.621Z,26.50
2019-04-26T11:45:40.369Z,26.60
2019-04-26T11:48:11.075Z,26.60
2019-04-26T11:50:42.139Z,26.50
2019-04-26T11:53:12.532Z,26.30
2019-04-26T11:55:43.340Z,26.10
2019-04-26T11:58:17.960Z,25.90
2019-04-26T12:00:50.822Z,25.70
2019-04-26T12:03:24.778Z,25.70
2019-04-26T12:05:55.240Z,25.90
2019-04-26T12:08:27.273Z,26.10
2019-04-26T12:10:58.071Z,26.40
2019-04-26T12:13:28.427Z,26.60
2019-04-26T12:15:59.231Z,26.80
2019-04-26T12:18:29.841Z,27.10
2019-04-26T12:21:01.054Z,27.40
2019-04-26T12:23:32.837Z,27.50
2019-04-26T12:26:03.538Z,27.50
2019-04-26T12:28:36.378Z,27.30
2019-04-26T12:31:06.347Z,27.30
2019-04-26T12:33:39.076Z,27.30
2019-04-26T12:36:12.850Z,27.40
2019-04-26T12:38:41.738Z,27.60
2019-04-26T12:41:12.489Z,27.70
2019-04-26T12:43:43.094Z,27.50
2019-04-26T12:46:22.780Z,27.50
2019-04-26T12:48:53.873Z,27.50
2019-04-26T12:51:24.211Z,27.30
2019-04-26T12:53:54.587Z,27.10
2019-04-26T12:56:26.627Z,26.90
2019-04-26T12:58:57.643Z,26.70
2019-04-26T13:01:28.058Z,26.50
2019-04-26T13:04:05.381Z,26.20
2019-04-26T13:06:38.471Z,26.00
2019-04-26T13:09:21.707Z,26.00
2019-04-26T13:12:01.080Z,26.00
2019-04-26T13:14:45.414Z,26.10
2019-04-26T13:17:26.888Z,26.00
2019-04-26T13:19:58.038Z,25.90
2019-04-26T13:22:28.646Z,25.80
2019-04-26T13:24:59.439Z,25.70
2019-04-26T13:27:29.769Z,25.80
2019-04-26T13:30:02.375Z,25.60
2019-04-26T13:32:32.870Z,25.40
2019-04-26T13:35:07.009Z,25.40
2019-04-26T13:37:35.959Z,25.30
2019-04-26T13:40:08.527Z,25.40
2019-04-26T13:42:38.870Z,25.30
2019-04-26T13:45:11.249Z,25.20
2019-04-26T13:47:43.491Z,25.20
2019-04-26T13:50:26.660Z,25.40
2019-04-26T13:52:56.661Z,25.60
2019-04-26T13:55:29.496Z,25.80
2019-04-26T13:57:59.677Z,26.00
2019-04-26T14:00:32.305Z,26.40
2019-04-26T14:03:03.010Z,26.40
2019-04-26T14:05:33.718Z,26.30
2019-04-26T14:08:04.556Z,26.30
2019-04-26T14:10:35.399Z,26.20
2019-04-26T14:13:06.006Z,26.30
2019-04-26T14:15:39.466Z,26.50
2019-04-26T14:18:09.162Z,26.70
2019-04-26T14:20:39.523Z,26.60
2019-04-26T14:23:28.157Z,26.60
2019-04-26T14:26:01.156Z,26.40
2019-04-26T14:28:32.869Z,26.40
2019-04-26T14:31:03.620Z,26.60
2019-04-26T14:33:34.245Z,26.60
2019-04-26T14:36:17.109Z,26.50
2019-04-26T14:38:40.210Z,26.30
2019-04-26T14:41:12.901Z,26.10
2019-04-26T14:43:41.634Z,26.00
2019-04-26T14:46:14.673Z,25.90
2019-04-26T14:48:54.874Z,25.90
2019-04-26T14:51:18.604Z,25.80
2019-04-26T14:53:49.197Z,25.80
2019-04-26T14:56:19.550Z,25.80
2019-04-26T14:58:50.285Z,25.90
2019-04-26T15:01:38.798Z,25.90
2019-04-26T15:04:28.294Z,26.00
2019-04-26T15:06:59.884Z,25.80
2019-04-26T15:09:35.840Z,25.60
2019-04-26T15:12:03.653Z,25.50
2019-04-26T15:14:34.101Z,25.30
2019-04-26T15:17:04.774Z,25.10
2019-04-26T15:19:35.331Z,24.90
2019-04-26T15:22:10.323Z,24.90
2019-04-26T15:24:38.715Z,24.80
2019-04-26T15:27:09.563Z,24.70
2019-04-26T15:29:41.991Z,24.50
2019-04-26T15:32:13.190Z,24.40
2019-04-26T15:34:43.828Z,24.10
2019-04-26T15:37:16.197Z,24.10
2019-04-26T15:40:00.315Z,24.00
2019-04-26T15:42:32.673Z,24.20
2019-04-26T15:45:05.691Z,24.40
2019-04-26T15:47:37.702Z,24.50
2019-04-26T15:50:10.876Z,24.60
2019-04-26T15:52:43.749Z,24.80
2019-04-26T15:55:14.338Z,24.80
2019-04-26T15:57:45.500Z,24.70
2019-04-26T16:00:16.207Z,24.80
2019-04-26T16:02:46.543Z,24.80
2019-04-26T16:05:17.513Z,24.70
2019-04-26T16:07:47.868Z,24.60
2019-04-26T16:10:18.558Z,24.50
2019-04-26T16:12:48.922Z,24.40
2019-04-26T16:15:19.658Z,24.40
2019-04-26T16:17:50.660Z,24.40
2019-04-26T16:20:22.139Z,24.40
2019-04-26T16:22:53.424Z,24.40
2019-04-26T16:25:24.111Z,24.30
2019-04-26T16:28:12.620Z,24.30
2019-04-26T16:30:45.131Z,24.30
2019-04-26T16:33:33.611Z,24.30
2019-04-26T16:36:05.291Z,24.30
2019-04-26T16:38:35.791Z,24.30
2019-04-26T16:41:07.283Z,24.30
2019-04-26T16:43:44.809Z,24.00
2019-04-26T16:46:12.606Z,23.90
2019-04-26T16:48:44.478Z,23.70
2019-04-26T16:51:14.629Z,23.50
2019-04-26T16:54:02.930Z,23.20
2019-04-26T16:56:17.390Z,22.90
2019-04-26T16:58:48.363Z,22.70
2019-04-26T17:01:18.778Z,22.50
2019-04-26T17:03:49.498Z,22.30
2019-04-26T17:06:20.260Z,22.20
2019-04-26T17:09:00.211Z,22.10
2019-04-26T17:11:23.204Z,22.00
2019-04-26T17:13:56.767Z,21.90
2019-04-26T17:16:29.654Z,21.80
2019-04-26T17:18:59.533Z,21.90
2019-04-26T17:21:34.604Z,21.80
2019-04-26T17:24:09.583Z,21.80
2019-04-26T17:26:40.730Z,21.80
2019-04-26T17:29:11.240Z,21.80
2019-04-26T17:31:43.060Z,21.70
2019-04-26T17:34:13.823Z,21.50
2019-04-26T17:36:52.188Z,21.30
2019-04-26T17:39:23.363Z,21.20
2019-04-26T17:41:54.452Z,21.00
2019-04-26T17:44:26.815Z,20.90
2019-04-26T17:47:00.174Z,20.90
2019-04-26T17:49:34.389Z,20.80
2019-04-26T17:52:02.435Z,20.70
2019-04-26T17:54:46.147Z,20.50
2019-04-26T17:57:08.747Z,20.40
2019-04-26T17:59:37.154Z,20.20
2019-04-26T18:02:25.565Z,20.10
2019-04-26T18:04:42.992Z,19.90
2019-04-26T18:07:37.684Z,19.80
2019-04-26T18:09:46.825Z,19.70
2019-04-26T18:12:17.460Z,19.60
2019-04-26T18:14:48.117Z,19.40
2019-04-26T18:17:20.425Z,19.30
2019-04-26T18:20:12.890Z,19.20
2019-04-26T18:22:45.212Z,19.10
2019-04-26T18:25:15.553Z,19.10
2019-04-26T18:27:45.908Z,19.00
2019-04-26T18:30:16.292Z,18.90
2019-04-26T18:32:47.664Z,18.80
2019-04-26T18:35:18.777Z,18.70
2019-04-26T18:37:49.479Z,18.60
2019-04-26T18:40:20.706Z,18.50
2019-04-26T18:42:54.726Z,18.40
2019-04-26T18:45:28.876Z,18.30
2019-04-26T18:48:01.135Z,18.20
2019-04-26T18:50:32.774Z,18.10
2019-04-26T18:53:14.912Z,18.00
2019-04-26T18:55:47.394Z,18.00
2019-04-26T18:58:18.202Z,17.90
2019-04-26T19:00:48.586Z,17.90
2019-04-26T19:03:19.242Z,17.90
2019-04-26T19:05:49.969Z,17.90
2019-04-26T19:08:26.960Z,17.80
2019-04-26T19:11:00.781Z,17.70
2019-04-26T19:13:43.470Z,17.60
2019-04-26T19:16:24.850Z,17.50
2019-04-26T19:18:59.998Z,17.50
2019-04-26T19:21:38.952Z,17.40
2019-04-26T19:24:11.610Z,17.30
2019-04-26T19:26:38.820Z,17.30
2019-04-26T19:29:16.313Z,17.20
2019-04-26T19:31:42.884Z,17.20
2019-04-26T19:34:33.146Z,17.10
2019-04-26T19:37:04.365Z,17.10
2019-04-26T19:39:35.848Z,17.10
2019-04-26T19:42:06.589Z,17.00
2019-04-26T19:44:37.223Z,16.90
2019-04-26T19:47:09.201Z,16.90
2019-04-26T19:49:47.215Z,16.90
2019-04-26T19:52:28.266Z,16.90
2019-04-26T19:55:15.580Z,16.80
2019-04-26T19:58:01.473Z,16.70
2019-04-26T20:00:52.465Z,16.70
2019-04-26T20:03:22.774Z,16.60
2019-04-26T20:05:53.124Z,16.60
2019-04-26T20:08:23.620Z,16.60
2019-04-26T20:10:53.961Z,16.60
2019-04-26T20:13:24.324Z,16.60
2019-04-26T20:15:57.324Z,16.60
2019-04-26T20:18:26.804Z,16.60
2019-04-26T20:20:57.273Z,16.70
2019-04-26T20:23:27.658Z,16.60
2019-04-26T20:26:06.103Z,16.60
2019-04-26T20:28:34.280Z,16.50
2019-04-26T20:31:12.273Z,16.40
2019-04-26T20:34:05.653Z,16.30
2019-04-26T20:36:40.662Z,16.20
2019-04-26T20:39:07.435Z,16.10
2019-04-26T20:41:38.042Z,16.10
2019-04-26T20:44:10.124Z,16.10
2019-04-26T20:46:42.496Z,16.10
2019-04-26T20:49:12.895Z,16.00
2019-04-26T20:51:46.270Z,16.00
2019-04-26T20:54:17.457Z,15.90
2019-04-26T20:56:52.640Z,15.80
2019-04-26T20:59:21.987Z,15.70
2019-04-26T21:02:03.349Z,15.70
2019-04-26T21:04:36.671Z,15.70
2019-04-26T21:06:56.768Z,15.60
2019-04-26T21:09:27.340Z,15.50
2019-04-26T21:11:58.438Z,15.50
2019-04-26T21:14:29.128Z,15.50
2019-04-26T21:16:59.519Z,15.50
2019-04-26T21:19:32.715Z,15.40
2019-04-26T21:22:02.645Z,15.40
2019-04-26T21:24:36.849Z,15.30
2019-04-26T21:27:09.278Z,15.30
2019-04-26T21:29:59.174Z,15.30
2019-04-26T21:32:51.426Z,15.20
2019-04-26T21:35:25.029Z,15.20
2019-04-26T21:38:16.000Z,15.20
2019-04-26T21:41:11.305Z,15.10
2019-04-26T21:43:39.319Z,15.10
2019-04-26T21:46:14.312Z,15.10
2019-04-26T21:48:45.469Z,15.10
2019-04-26T21:51:16.364Z,15.00
2019-04-26T21:53:46.992Z,15.00
2019-04-26T21:56:17.368Z,15.00
2019-04-26T21:58:48.421Z,14.90
2019-04-26T22:01:23.467Z,14.90
2019-04-26T22:03:58.129Z,14.80
2019-04-26T22:06:28.703Z,14.70
2019-04-26T22:09:04.954Z,14.60
2019-04-26T22:11:35.445Z,14.60
2019-04-26T22:14:21.420Z,14.50
2019-04-26T22:20:55.201Z,14.40
2019-04-26T22:23:36.492Z,14.30
2019-04-26T22:26:55.865Z,14.20
2019-04-26T22:29:26.552Z,14.00
2019-04-26T22:31:57.744Z,13.70
2019-04-26T22:34:28.450Z,13.50
2019-04-26T22:37:29.079Z,13.40
2019-04-26T22:39:50.685Z,13.20
2019-04-26T22:42:21.448Z,13.10
2019-04-26T22:45:13.406Z,13.00
2019-04-26T22:48:05.698Z,13.10
2019-04-26T22:50:36.766Z,13.00
2019-04-26T22:53:08.001Z,13.00
2019-04-26T22:55:38.344Z,13.00
2019-04-26T22:58:09.312Z,13.00
2019-04-26T23:00:40.440Z,12.90
2019-04-26T23:03:11.116Z,12.90
2019-04-26T23:05:43.255Z,12.80
2019-04-26T23:08:14.350Z,12.70
2019-04-26T23:10:49.115Z,12.60
2019-04-26T23:13:21.161Z,12.60
2019-04-26T23:16:11.383Z,12.50
2019-04-26T23:18:49.755Z,12.40
2019-04-26T23:21:28.194Z,12.30
2019-04-26T23:23:59.443Z,12.30
2019-04-26T23:26:30.201Z,12.30
2019-04-26T23:29:01.123Z,12.20
2019-04-26T23:31:33.442Z,12.20
2019-04-26T23:34:04.319Z,12.20
2019-04-26T23:36:34.914Z,12.10
2019-04-26T23:39:07.675Z,12.00
2019-04-26T23:41:41.638Z,12.00
2019-04-26T23:44:10.851Z,11.90
2019-04-26T23:46:43.161Z,11.80
2019-04-26T23:49:14.507Z,11.80
2019-04-26T23:51:45.979Z,11.80
2019-04-26T23:54:16.464Z,11.70
2019-04-26T23:56:46.864Z,11.70
2019-04-26T23:59:20.831Z,11.70
